Apple Springs, Texas
Current Conditions -  °F | °C
As of 8:53 AM on Monday 24 Nov 2014 (Local Time) from KLFK Reporting Station
Clear Clear  
Wind Chill: 53°   Ceiling: Unl
Heat Index: 53°   Visibility: 10mi
Dew Point: 39°   Wind: 8mph
Humidity: 59%   Direction: 330°NNW
Pressure: 30.03"   Gusts: NA
Location:  31.22°N, 94.97°W
Report Text: KLFK 241453Z AUTO 33007KT 10SM CLR 12/04 A3003 RMK AO2 SLP166 T01170039 53037
Loading
Personal Weather Stations






























Interactive Weather Map New forecast layout! Learn more

10-Day Weather Forecast

Advertisements
Track Severe Weather on mobile